sensor_id;sensor_type;location;lat;lon;timestamp;P1;durP1;ratioP1;P2;durP2;ratioP2
74851;SDS011;63400;50.650;6.832;2023-03-03T00:00:50;22.08;;;7.75;;
74851;SDS011;63400;50.650;6.832;2023-03-03T00:03:17;19.55;;;7.32;;
74851;SDS011;63400;50.650;6.832;2023-03-03T00:05:43;22.92;;;7.80;;
74851;SDS011;63400;50.650;6.832;2023-03-03T00:08:09;16.95;;;6.65;;
74851;SDS011;63400;50.650;6.832;2023-03-03T00:10:35;20.42;;;8.20;;
74851;SDS011;63400;50.650;6.832;2023-03-03T00:13:01;18.60;;;6.75;;
74851;SDS011;63400;50.650;6.832;2023-03-03T00:15:26;21.50;;;8.05;;
74851;SDS011;63400;50.650;6.832;2023-03-03T00:17:52;28.83;;;10.35;;
74851;SDS011;63400;50.650;6.832;2023-03-03T00:22:50;27.52;;;9.18;;
74851;SDS011;63400;50.650;6.832;2023-03-03T00:27:54;30.00;;;11.27;;
74851;SDS011;63400;50.650;6.832;2023-03-03T00:30:23;25.17;;;9.85;;
74851;SDS011;63400;50.650;6.832;2023-03-03T00:32:50;29.13;;;10.15;;
74851;SDS011;63400;50.650;6.832;2023-03-03T00:37:52;28.75;;;9.90;;
74851;SDS011;63400;50.650;6.832;2023-03-03T00:43:01;19.42;;;7.93;;
74851;SDS011;63400;50.650;6.832;2023-03-03T00:45:28;22.48;;;8.93;;
74851;SDS011;63400;50.650;6.832;2023-03-03T00:47:55;30.08;;;10.10;;
74851;SDS011;63400;50.650;6.832;2023-03-03T00:50:31;26.27;;;8.73;;
74851;SDS011;63400;50.650;6.832;2023-03-03T00:55:31;21.92;;;8.10;;
74851;SDS011;63400;50.650;6.832;2023-03-03T00:57:57;26.90;;;9.07;;
74851;SDS011;63400;50.650;6.832;2023-03-03T01:00:22;17.90;;;8.13;;
74851;SDS011;63400;50.650;6.832;2023-03-03T01:02:48;21.58;;;8.43;;
74851;SDS011;63400;50.650;6.832;2023-03-03T01:05:14;19.33;;;7.75;;
74851;SDS011;63400;50.650;6.832;2023-03-03T01:07:41;25.55;;;8.25;;
74851;SDS011;63400;50.650;6.832;2023-03-03T01:10:06;18.17;;;7.32;;
74851;SDS011;63400;50.650;6.832;2023-03-03T01:12:32;20.27;;;8.27;;
74851;SDS011;63400;50.650;6.832;2023-03-03T01:14:58;25.95;;;9.07;;
74851;SDS011;63400;50.650;6.832;2023-03-03T01:17:23;17.38;;;7.65;;
74851;SDS011;63400;50.650;6.832;2023-03-03T01:19:49;26.45;;;8.77;;
74851;SDS011;63400;50.650;6.832;2023-03-03T01:22:14;16.98;;;7.47;;
74851;SDS011;63400;50.650;6.832;2023-03-03T01:24:40;20.98;;;8.75;;
74851;SDS011;63400;50.650;6.832;2023-03-03T01:27:05;20.77;;;8.23;;
74851;SDS011;63400;50.650;6.832;2023-03-03T01:29:31;21.02;;;8.73;;
74851;SDS011;63400;50.650;6.832;2023-03-03T01:31:56;23.65;;;8.50;;
74851;SDS011;63400;50.650;6.832;2023-03-03T01:34:22;20.80;;;8.35;;
74851;SDS011;63400;50.650;6.832;2023-03-03T01:36:48;30.55;;;10.15;;
74851;SDS011;63400;50.650;6.832;2023-03-03T01:39:13;19.48;;;7.78;;
74851;SDS011;63400;50.650;6.832;2023-03-03T01:41:39;24.25;;;8.95;;
74851;SDS011;63400;50.650;6.832;2023-03-03T01:44:05;22.85;;;8.75;;
74851;SDS011;63400;50.650;6.832;2023-03-03T01:46:40;19.90;;;7.88;;
74851;SDS011;63400;50.650;6.832;2023-03-03T01:49:16;17.27;;;7.72;;
74851;SDS011;63400;50.650;6.832;2023-03-03T01:52:00;20.75;;;8.02;;
74851;SDS011;63400;50.650;6.832;2023-03-03T01:54:28;18.33;;;7.45;;
74851;SDS011;63400;50.650;6.832;2023-03-03T01:56:57;24.65;;;8.77;;
74851;SDS011;63400;50.650;6.832;2023-03-03T01:59:30;20.15;;;7.93;;
74851;SDS011;63400;50.650;6.832;2023-03-03T02:01:59;20.58;;;8.70;;
74851;SDS011;63400;50.650;6.832;2023-03-03T02:04:24;18.60;;;7.57;;
74851;SDS011;63400;50.650;6.832;2023-03-03T02:06:51;28.17;;;9.85;;
74851;SDS011;63400;50.650;6.832;2023-03-03T02:12:11;23.38;;;9.05;;
74851;SDS011;63400;50.650;6.832;2023-03-03T02:14:38;22.08;;;7.38;;
74851;SDS011;63400;50.650;6.832;2023-03-03T02:17:03;17.30;;;8.35;;
74851;SDS011;63400;50.650;6.832;2023-03-03T02:19:32;24.75;;;9.13;;
74851;SDS011;63400;50.650;6.832;2023-03-03T02:22:03;20.80;;;8.13;;
74851;SDS011;63400;50.650;6.832;2023-03-03T02:24:50;23.17;;;8.50;;
74851;SDS011;63400;50.650;6.832;2023-03-03T02:27:15;22.95;;;8.95;;
74851;SDS011;63400;50.650;6.832;2023-03-03T02:29:41;24.48;;;11.13;;
74851;SDS011;63400;50.650;6.832;2023-03-03T02:32:06;17.85;;;7.82;;
74851;SDS011;63400;50.650;6.832;2023-03-03T02:34:43;22.77;;;10.55;;
74851;SDS011;63400;50.650;6.832;2023-03-03T02:37:10;21.00;;;9.75;;
74851;SDS011;63400;50.650;6.832;2023-03-03T02:39:35;25.35;;;8.13;;
74851;SDS011;63400;50.650;6.832;2023-03-03T02:42:22;26.60;;;9.65;;
74851;SDS011;63400;50.650;6.832;2023-03-03T02:44:48;32.67;;;11.38;;
74851;SDS011;63400;50.650;6.832;2023-03-03T02:47:14;24.92;;;9.85;;
74851;SDS011;63400;50.650;6.832;2023-03-03T02:49:39;25.60;;;9.35;;
74851;SDS011;63400;50.650;6.832;2023-03-03T02:52:07;27.20;;;10.13;;
74851;SDS011;63400;50.650;6.832;2023-03-03T02:54:34;23.92;;;9.65;;
74851;SDS011;63400;50.650;6.832;2023-03-03T02:57:00;27.45;;;11.38;;
74851;SDS011;63400;50.650;6.832;2023-03-03T02:59:25;25.48;;;10.85;;
74851;SDS011;63400;50.650;6.832;2023-03-03T03:01:51;35.35;;;11.50;;
74851;SDS011;63400;50.650;6.832;2023-03-03T03:04:18;30.05;;;11.38;;
74851;SDS011;63400;50.650;6.832;2023-03-03T03:06:45;33.70;;;12.10;;
74851;SDS011;63400;50.650;6.832;2023-03-03T03:09:10;33.75;;;12.98;;
74851;SDS011;63400;50.650;6.832;2023-03-03T03:11:36;30.48;;;13.20;;
74851;SDS011;63400;50.650;6.832;2023-03-03T03:14:02;34.03;;;11.73;;
74851;SDS011;63400;50.650;6.832;2023-03-03T03:16:28;32.08;;;12.70;;
74851;SDS011;63400;50.650;6.832;2023-03-03T03:18:55;34.58;;;12.18;;
74851;SDS011;63400;50.650;6.832;2023-03-03T03:21:21;31.88;;;12.68;;
74851;SDS011;63400;50.650;6.832;2023-03-03T03:23:47;40.63;;;14.32;;
74851;SDS011;63400;50.650;6.832;2023-03-03T03:26:12;32.10;;;12.98;;
74851;SDS011;63400;50.650;6.832;2023-03-03T03:28:38;31.77;;;11.85;;
74851;SDS011;63400;50.650;6.832;2023-03-03T03:31:04;35.33;;;13.48;;
74851;SDS011;63400;50.650;6.832;2023-03-03T03:33:30;39.22;;;13.50;;
74851;SDS011;63400;50.650;6.832;2023-03-03T03:35:56;45.75;;;14.38;;
74851;SDS011;63400;50.650;6.832;2023-03-03T03:38:22;41.85;;;15.20;;
74851;SDS011;63400;50.650;6.832;2023-03-03T03:40:48;41.63;;;16.80;;
74851;SDS011;63400;50.650;6.832;2023-03-03T03:43:13;35.42;;;14.60;;
74851;SDS011;63400;50.650;6.832;2023-03-03T03:45:40;42.30;;;15.50;;
74851;SDS011;63400;50.650;6.832;2023-03-03T03:48:07;40.60;;;14.63;;
74851;SDS011;63400;50.650;6.832;2023-03-03T03:50:32;38.85;;;14.48;;
74851;SDS011;63400;50.650;6.832;2023-03-03T03:52:57;47.58;;;16.65;;
74851;SDS011;63400;50.650;6.832;2023-03-03T03:55:23;49.53;;;15.73;;
74851;SDS011;63400;50.650;6.832;2023-03-03T03:57:48;45.67;;;14.70;;
74851;SDS011;63400;50.650;6.832;2023-03-03T04:00:14;41.80;;;16.88;;
74851;SDS011;63400;50.650;6.832;2023-03-03T04:02:39;42.85;;;15.95;;
74851;SDS011;63400;50.650;6.832;2023-03-03T04:05:05;45.85;;;15.82;;
74851;SDS011;63400;50.650;6.832;2023-03-03T04:07:31;45.42;;;16.65;;
74851;SDS011;63400;50.650;6.832;2023-03-03T04:09:57;49.72;;;17.20;;
74851;SDS011;63400;50.650;6.832;2023-03-03T04:12:22;45.40;;;15.40;;
74851;SDS011;63400;50.650;6.832;2023-03-03T04:14:47;46.60;;;14.95;;
74851;SDS011;63400;50.650;6.832;2023-03-03T04:17:17;41.83;;;14.93;;
74851;SDS011;63400;50.650;6.832;2023-03-03T04:19:43;48.13;;;16.60;;
74851;SDS011;63400;50.650;6.832;2023-03-03T04:22:08;35.60;;;15.77;;
74851;SDS011;63400;50.650;6.832;2023-03-03T04:24:34;44.22;;;15.35;;
74851;SDS011;63400;50.650;6.832;2023-03-03T04:26:59;42.53;;;16.27;;
74851;SDS011;63400;50.650;6.832;2023-03-03T04:29:25;41.80;;;14.52;;
74851;SDS011;63400;50.650;6.832;2023-03-03T04:31:50;44.72;;;15.27;;
74851;SDS011;63400;50.650;6.832;2023-03-03T04:34:16;49.22;;;18.48;;
74851;SDS011;63400;50.650;6.832;2023-03-03T04:36:41;42.80;;;14.93;;
74851;SDS011;63400;50.650;6.832;2023-03-03T04:39:06;40.22;;;16.00;;
74851;SDS011;63400;50.650;6.832;2023-03-03T04:41:32;42.45;;;14.65;;
74851;SDS011;63400;50.650;6.832;2023-03-03T04:43:57;46.42;;;15.15;;
74851;SDS011;63400;50.650;6.832;2023-03-03T04:46:23;39.15;;;13.65;;
74851;SDS011;63400;50.650;6.832;2023-03-03T04:48:48;48.78;;;16.88;;
74851;SDS011;63400;50.650;6.832;2023-03-03T04:51:13;43.65;;;16.08;;
74851;SDS011;63400;50.650;6.832;2023-03-03T04:53:40;39.72;;;16.25;;
74851;SDS011;63400;50.650;6.832;2023-03-03T04:56:06;42.75;;;14.02;;
74851;SDS011;63400;50.650;6.832;2023-03-03T04:58:32;45.38;;;16.17;;
74851;SDS011;63400;50.650;6.832;2023-03-03T05:00:57;45.58;;;16.00;;
74851;SDS011;63400;50.650;6.832;2023-03-03T05:03:22;43.08;;;15.75;;
74851;SDS011;63400;50.650;6.832;2023-03-03T05:05:49;51.00;;;16.55;;
74851;SDS011;63400;50.650;6.832;2023-03-03T05:08:14;44.95;;;13.52;;
74851;SDS011;63400;50.650;6.832;2023-03-03T05:10:40;36.08;;;13.80;;
74851;SDS011;63400;50.650;6.832;2023-03-03T05:13:11;37.78;;;14.00;;
74851;SDS011;63400;50.650;6.832;2023-03-03T05:19:14;46.50;;;15.25;;
74851;SDS011;63400;50.650;6.832;2023-03-03T06:00:04;43.38;;;14.43;;
74851;SDS011;63400;50.650;6.832;2023-03-03T06:03:41;41.50;;;15.85;;
74851;SDS011;63400;50.650;6.832;2023-03-03T06:13:52;39.53;;;15.68;;
74851;SDS011;63400;50.650;6.832;2023-03-03T06:19:56;44.22;;;15.43;;
74851;SDS011;63400;50.650;6.832;2023-03-03T06:30:12;36.38;;;13.23;;
74851;SDS011;63400;50.650;6.832;2023-03-03T06:37:03;32.88;;;12.13;;
74851;SDS011;63400;50.650;6.832;2023-03-03T06:54:12;33.65;;;13.35;;
74851;SDS011;63400;50.650;6.832;2023-03-03T07:11:22;45.50;;;15.57;;
74851;SDS011;63400;50.650;6.832;2023-03-03T08:11:56;42.05;;;13.43;;
74851;SDS011;63400;50.650;6.832;2023-03-03T08:15:23;35.13;;;13.55;;
74851;SDS011;63400;50.650;6.832;2023-03-03T08:17:54;45.38;;;16.50;;
74851;SDS011;63400;50.650;6.832;2023-03-03T08:27:05;42.83;;;16.65;;
74851;SDS011;63400;50.650;6.832;2023-03-03T09:07:56;33.65;;;12.40;;
74851;SDS011;63400;50.650;6.832;2023-03-03T09:11:25;39.20;;;12.15;;
74851;SDS011;63400;50.650;6.832;2023-03-03T09:16:50;34.50;;;11.05;;
74851;SDS011;63400;50.650;6.832;2023-03-03T09:19:24;32.97;;;11.40;;
74851;SDS011;63400;50.650;6.832;2023-03-03T09:24:49;38.28;;;11.82;;
74851;SDS011;63400;50.650;6.832;2023-03-03T09:27:24;33.80;;;12.57;;
74851;SDS011;63400;50.650;6.832;2023-03-03T09:29:53;33.17;;;12.55;;
74851;SDS011;63400;50.650;6.832;2023-03-03T09:32:21;34.97;;;12.27;;
74851;SDS011;63400;50.650;6.832;2023-03-03T09:34:54;43.88;;;13.75;;
74851;SDS011;63400;50.650;6.832;2023-03-03T09:37:23;38.83;;;14.45;;
74851;SDS011;63400;50.650;6.832;2023-03-03T09:39:55;39.53;;;12.80;;
74851;SDS011;63400;50.650;6.832;2023-03-03T10:01:12;37.85;;;12.25;;
74851;SDS011;63400;50.650;6.832;2023-03-03T10:06:41;44.67;;;15.18;;
74851;SDS011;63400;50.650;6.832;2023-03-03T10:09:30;35.55;;;13.07;;
74851;SDS011;63400;50.650;6.832;2023-03-03T10:12:10;43.45;;;12.48;;
74851;SDS011;63400;50.650;6.832;2023-03-03T10:25:57;33.25;;;11.48;;
74851;SDS011;63400;50.650;6.832;2023-03-03T10:33:50;37.92;;;13.35;;
74851;SDS011;63400;50.650;6.832;2023-03-03T10:36:45;41.25;;;14.73;;
74851;SDS011;63400;50.650;6.832;2023-03-03T10:47:48;36.35;;;12.18;;
74851;SDS011;63400;50.650;6.832;2023-03-03T10:50:49;36.95;;;12.45;;
74851;SDS011;63400;50.650;6.832;2023-03-03T10:53:33;35.85;;;12.15;;
74851;SDS011;63400;50.650;6.832;2023-03-03T10:56:43;37.10;;;12.48;;
74851;SDS011;63400;50.650;6.832;2023-03-03T10:59:42;36.88;;;12.50;;
74851;SDS011;63400;50.650;6.832;2023-03-03T11:02:20;44.20;;;13.55;;
74851;SDS011;63400;50.650;6.832;2023-03-03T11:05:08;40.85;;;12.20;;
74851;SDS011;63400;50.650;6.832;2023-03-03T11:08:21;40.47;;;13.43;;
74851;SDS011;63400;50.650;6.832;2023-03-03T13:08:32;36.85;;;12.43;;
74851;SDS011;63400;50.650;6.832;2023-03-03T13:16:48;41.90;;;12.82;;
74851;SDS011;63400;50.650;6.832;2023-03-03T13:19:40;42.75;;;13.57;;
74851;SDS011;63400;50.650;6.832;2023-03-03T13:27:31;42.22;;;13.20;;
74851;SDS011;63400;50.650;6.832;2023-03-03T13:37:56;41.33;;;13.77;;
74851;SDS011;63400;50.650;6.832;2023-03-03T13:40:25;43.75;;;14.73;;
74851;SDS011;63400;50.650;6.832;2023-03-03T13:42:56;52.08;;;15.25;;
74851;SDS011;63400;50.650;6.832;2023-03-03T13:45:45;51.10;;;16.45;;
74851;SDS011;63400;50.650;6.832;2023-03-03T13:51:35;49.20;;;14.88;;
74851;SDS011;63400;50.650;6.832;2023-03-03T13:54:11;47.42;;;15.70;;
74851;SDS011;63400;50.650;6.832;2023-03-03T13:57:20;55.03;;;17.50;;
74851;SDS011;63400;50.650;6.832;2023-03-03T14:00:01;48.00;;;16.20;;
74851;SDS011;63400;50.650;6.832;2023-03-03T14:02:48;41.45;;;15.50;;
74851;SDS011;63400;50.650;6.832;2023-03-03T14:07:51;56.88;;;18.40;;
74851;SDS011;63400;50.650;6.832;2023-03-03T14:13:06;50.05;;;17.73;;
74851;SDS011;63400;50.650;6.832;2023-03-03T14:15:45;50.70;;;17.70;;
74851;SDS011;63400;50.650;6.832;2023-03-03T14:18:29;52.50;;;18.63;;
74851;SDS011;63400;50.650;6.832;2023-03-03T14:21:02;54.80;;;17.15;;
74851;SDS011;63400;50.650;6.832;2023-03-03T14:26:09;51.90;;;17.15;;
74851;SDS011;63400;50.650;6.832;2023-03-03T14:28:43;52.90;;;20.10;;
74851;SDS011;63400;50.650;6.832;2023-03-03T14:31:19;55.35;;;18.75;;
74851;SDS011;63400;50.650;6.832;2023-03-03T14:33:57;52.72;;;18.38;;
74851;SDS011;63400;50.650;6.832;2023-03-03T14:36:32;50.50;;;17.10;;
74851;SDS011;63400;50.650;6.832;2023-03-03T14:39:01;59.60;;;19.50;;
74851;SDS011;63400;50.650;6.832;2023-03-03T14:41:39;48.03;;;17.00;;
74851;SDS011;63400;50.650;6.832;2023-03-03T14:49:35;55.35;;;17.92;;
74851;SDS011;63400;50.650;6.832;2023-03-03T14:52:04;59.08;;;18.95;;
74851;SDS011;63400;50.650;6.832;2023-03-03T14:54:39;54.30;;;18.08;;
74851;SDS011;63400;50.650;6.832;2023-03-03T15:00:00;59.22;;;19.52;;
74851;SDS011;63400;50.650;6.832;2023-03-03T15:02:34;59.63;;;18.65;;
74851;SDS011;63400;50.650;6.832;2023-03-03T15:07:46;61.13;;;19.48;;
74851;SDS011;63400;50.650;6.832;2023-03-03T15:10:25;70.55;;;21.30;;
74851;SDS011;63400;50.650;6.832;2023-03-03T15:18:17;60.78;;;19.65;;
74851;SDS011;63400;50.650;6.832;2023-03-03T15:20:44;62.10;;;19.10;;
74851;SDS011;63400;50.650;6.832;2023-03-03T15:31:48;74.90;;;25.08;;
74851;SDS011;63400;50.650;6.832;2023-03-03T15:34:20;62.67;;;18.67;;
74851;SDS011;63400;50.650;6.832;2023-03-03T15:45:26;60.83;;;21.58;;
74851;SDS011;63400;50.650;6.832;2023-03-03T16:02:08;75.40;;;22.98;;
74851;SDS011;63400;50.650;6.832;2023-03-03T16:04:47;73.20;;;23.73;;
74851;SDS011;63400;50.650;6.832;2023-03-03T16:12:26;71.10;;;22.92;;
74851;SDS011;63400;50.650;6.832;2023-03-03T16:17:58;71.55;;;21.48;;
74851;SDS011;63400;50.650;6.832;2023-03-03T16:32:40;64.88;;;22.30;;
74851;SDS011;63400;50.650;6.832;2023-03-03T16:35:23;51.20;;;18.70;;
74851;SDS011;63400;50.650;6.832;2023-03-03T16:37:59;56.60;;;18.70;;
74851;SDS011;63400;50.650;6.832;2023-03-03T16:43:21;49.65;;;19.52;;
74851;SDS011;63400;50.650;6.832;2023-03-03T16:45:50;54.80;;;18.92;;
74851;SDS011;63400;50.650;6.832;2023-03-03T16:51:25;61.35;;;20.80;;
74851;SDS011;63400;50.650;6.832;2023-03-03T16:53:56;58.15;;;22.48;;
74851;SDS011;63400;50.650;6.832;2023-03-03T16:59:30;63.72;;;21.77;;
74851;SDS011;63400;50.650;6.832;2023-03-03T17:05:00;64.38;;;21.77;;
74851;SDS011;63400;50.650;6.832;2023-03-03T17:10:49;62.22;;;20.33;;
74851;SDS011;63400;50.650;6.832;2023-03-03T17:13:33;71.28;;;22.55;;
74851;SDS011;63400;50.650;6.832;2023-03-03T17:16:34;72.38;;;22.42;;
74851;SDS011;63400;50.650;6.832;2023-03-03T17:19:20;59.17;;;19.60;;
74851;SDS011;63400;50.650;6.832;2023-03-03T17:30:29;71.30;;;22.90;;
74851;SDS011;63400;50.650;6.832;2023-03-03T17:33:17;71.53;;;25.63;;
74851;SDS011;63400;50.650;6.832;2023-03-03T17:35:56;65.22;;;23.73;;
74851;SDS011;63400;50.650;6.832;2023-03-03T17:38:30;76.35;;;25.55;;
74851;SDS011;63400;50.650;6.832;2023-03-03T17:41:20;69.72;;;24.98;;
74851;SDS011;63400;50.650;6.832;2023-03-03T17:44:11;64.65;;;21.42;;
74851;SDS011;63400;50.650;6.832;2023-03-03T17:46:49;64.40;;;24.45;;
74851;SDS011;63400;50.650;6.832;2023-03-03T17:52:07;67.57;;;21.80;;
74851;SDS011;63400;50.650;6.832;2023-03-03T18:08:47;64.20;;;23.70;;
74851;SDS011;63400;50.650;6.832;2023-03-03T18:11:27;63.97;;;24.58;;
74851;SDS011;63400;50.650;6.832;2023-03-03T18:14:30;61.38;;;25.35;;
74851;SDS011;63400;50.650;6.832;2023-03-03T18:24:58;66.95;;;23.20;;
74851;SDS011;63400;50.650;6.832;2023-03-03T18:32:44;74.53;;;28.52;;
74851;SDS011;63400;50.650;6.832;2023-03-03T18:46:08;69.00;;;24.48;;
74851;SDS011;63400;50.650;6.832;2023-03-03T18:48:48;71.43;;;25.35;;
74851;SDS011;63400;50.650;6.832;2023-03-03T18:56:44;67.22;;;20.45;;
74851;SDS011;63400;50.650;6.832;2023-03-03T19:04:40;60.92;;;21.63;;
74851;SDS011;63400;50.650;6.832;2023-03-03T19:07:15;59.42;;;19.13;;
74851;SDS011;63400;50.650;6.832;2023-03-03T19:09:58;68.93;;;23.48;;
74851;SDS011;63400;50.650;6.832;2023-03-03T19:20:45;63.00;;;22.73;;
74851;SDS011;63400;50.650;6.832;2023-03-03T19:23:16;66.00;;;22.20;;
74851;SDS011;63400;50.650;6.832;2023-03-03T19:25:44;60.42;;;19.75;;
74851;SDS011;63400;50.650;6.832;2023-03-03T19:28:25;56.88;;;21.95;;
74851;SDS011;63400;50.650;6.832;2023-03-03T19:30:57;61.63;;;20.17;;
74851;SDS011;63400;50.650;6.832;2023-03-03T19:36:16;70.22;;;23.13;;
74851;SDS011;63400;50.650;6.832;2023-03-03T19:39:42;73.88;;;24.48;;
74851;SDS011;63400;50.650;6.832;2023-03-03T19:47:47;63.97;;;23.13;;
74851;SDS011;63400;50.650;6.832;2023-03-03T20:09:52;70.43;;;23.85;;
74851;SDS011;63400;50.650;6.832;2023-03-03T20:15:50;61.92;;;21.50;;
74851;SDS011;63400;50.650;6.832;2023-03-03T20:35:29;58.53;;;21.60;;
74851;SDS011;63400;50.650;6.832;2023-03-03T20:54:36;70.05;;;24.05;;
74851;SDS011;63400;50.650;6.832;2023-03-03T20:57:18;56.50;;;20.90;;
74851;SDS011;63400;50.650;6.832;2023-03-03T21:02:51;57.35;;;20.35;;
74851;SDS011;63400;50.650;6.832;2023-03-03T21:05:21;63.72;;;21.63;;
74851;SDS011;63400;50.650;6.832;2023-03-03T21:07:55;54.17;;;20.42;;
74851;SDS011;63400;50.650;6.832;2023-03-03T21:10:28;59.75;;;21.90;;
74851;SDS011;63400;50.650;6.832;2023-03-03T21:12:56;62.33;;;23.67;;
74851;SDS011;63400;50.650;6.832;2023-03-03T21:17:48;57.75;;;23.17;;
74851;SDS011;63400;50.650;6.832;2023-03-03T21:20:24;64.38;;;22.70;;
74851;SDS011;63400;50.650;6.832;2023-03-03T21:22:57;57.63;;;19.23;;
74851;SDS011;63400;50.650;6.832;2023-03-03T21:31:08;54.83;;;21.35;;
74851;SDS011;63400;50.650;6.832;2023-03-03T21:33:48;61.67;;;20.60;;
74851;SDS011;63400;50.650;6.832;2023-03-03T21:36:18;62.33;;;22.00;;
74851;SDS011;63400;50.650;6.832;2023-03-03T21:38:56;57.60;;;21.65;;
74851;SDS011;63400;50.650;6.832;2023-03-03T21:41:23;57.22;;;22.08;;
74851;SDS011;63400;50.650;6.832;2023-03-03T21:43:50;61.25;;;20.58;;
74851;SDS011;63400;50.650;6.832;2023-03-03T21:46:17;62.47;;;23.73;;
74851;SDS011;63400;50.650;6.832;2023-03-03T21:48:47;55.42;;;21.85;;
74851;SDS011;63400;50.650;6.832;2023-03-03T21:51:12;63.03;;;22.75;;
74851;SDS011;63400;50.650;6.832;2023-03-03T21:53:38;54.55;;;19.88;;
74851;SDS011;63400;50.650;6.832;2023-03-03T21:56:08;55.90;;;20.08;;
74851;SDS011;63400;50.650;6.832;2023-03-03T21:58:34;59.25;;;21.88;;
74851;SDS011;63400;50.650;6.832;2023-03-03T22:01:02;62.92;;;21.02;;
74851;SDS011;63400;50.650;6.832;2023-03-03T22:03:28;54.30;;;23.33;;
74851;SDS011;63400;50.650;6.832;2023-03-03T22:05:54;58.58;;;21.50;;
74851;SDS011;63400;50.650;6.832;2023-03-03T22:08:20;58.38;;;21.20;;
74851;SDS011;63400;50.650;6.832;2023-03-03T22:10:48;58.55;;;20.70;;
74851;SDS011;63400;50.650;6.832;2023-03-03T22:13:21;60.33;;;21.05;;
74851;SDS011;63400;50.650;6.832;2023-03-03T22:15:47;63.78;;;21.38;;
74851;SDS011;63400;50.650;6.832;2023-03-03T22:18:13;74.22;;;25.80;;
74851;SDS011;63400;50.650;6.832;2023-03-03T22:20:39;59.45;;;21.30;;
74851;SDS011;63400;50.650;6.832;2023-03-03T22:23:05;53.90;;;20.70;;
74851;SDS011;63400;50.650;6.832;2023-03-03T22:25:30;57.15;;;19.23;;
74851;SDS011;63400;50.650;6.832;2023-03-03T22:27:56;59.33;;;19.80;;
74851;SDS011;63400;50.650;6.832;2023-03-03T22:30:22;49.50;;;19.58;;
74851;SDS011;63400;50.650;6.832;2023-03-03T22:32:47;44.60;;;18.20;;
74851;SDS011;63400;50.650;6.832;2023-03-03T22:35:16;60.10;;;20.02;;
74851;SDS011;63400;50.650;6.832;2023-03-03T22:37:42;53.63;;;19.30;;
74851;SDS011;63400;50.650;6.832;2023-03-03T22:40:08;53.65;;;17.63;;
74851;SDS011;63400;50.650;6.832;2023-03-03T22:42:34;49.30;;;17.80;;
74851;SDS011;63400;50.650;6.832;2023-03-03T22:45:00;47.60;;;17.25;;
74851;SDS011;63400;50.650;6.832;2023-03-03T22:47:27;64.40;;;21.23;;
74851;SDS011;63400;50.650;6.832;2023-03-03T22:49:52;49.17;;;17.52;;
74851;SDS011;63400;50.650;6.832;2023-03-03T22:52:18;57.65;;;19.80;;
74851;SDS011;63400;50.650;6.832;2023-03-03T22:54:43;44.80;;;17.95;;
74851;SDS011;63400;50.650;6.832;2023-03-03T22:57:09;45.70;;;16.20;;
74851;SDS011;63400;50.650;6.832;2023-03-03T22:59:34;55.88;;;18.13;;
74851;SDS011;63400;50.650;6.832;2023-03-03T23:02:00;50.13;;;16.52;;
74851;SDS011;63400;50.650;6.832;2023-03-03T23:04:25;66.93;;;21.83;;
74851;SDS011;63400;50.650;6.832;2023-03-03T23:06:51;48.38;;;15.15;;
74851;SDS011;63400;50.650;6.832;2023-03-03T23:09:17;49.42;;;17.40;;
74851;SDS011;63400;50.650;6.832;2023-03-03T23:11:42;45.65;;;15.98;;
74851;SDS011;63400;50.650;6.832;2023-03-03T23:14:07;42.35;;;17.13;;
74851;SDS011;63400;50.650;6.832;2023-03-03T23:16:33;48.58;;;16.15;;
74851;SDS011;63400;50.650;6.832;2023-03-03T23:18:58;49.47;;;17.55;;
74851;SDS011;63400;50.650;6.832;2023-03-03T23:21:24;51.75;;;18.33;;
74851;SDS011;63400;50.650;6.832;2023-03-03T23:23:49;44.83;;;16.27;;
74851;SDS011;63400;50.650;6.832;2023-03-03T23:26:14;46.30;;;15.75;;
74851;SDS011;63400;50.650;6.832;2023-03-03T23:28:41;46.17;;;14.68;;
74851;SDS011;63400;50.650;6.832;2023-03-03T23:31:06;45.33;;;15.13;;
74851;SDS011;63400;50.650;6.832;2023-03-03T23:33:32;47.00;;;15.77;;
74851;SDS011;63400;50.650;6.832;2023-03-03T23:35:59;43.33;;;15.38;;
74851;SDS011;63400;50.650;6.832;2023-03-03T23:38:25;45.35;;;16.13;;
74851;SDS011;63400;50.650;6.832;2023-03-03T23:40:51;40.95;;;14.38;;
74851;SDS011;63400;50.650;6.832;2023-03-03T23:43:16;53.70;;;16.58;;
74851;SDS011;63400;50.650;6.832;2023-03-03T23:45:41;43.00;;;16.20;;
74851;SDS011;63400;50.650;6.832;2023-03-03T23:48:07;38.47;;;13.85;;
74851;SDS011;63400;50.650;6.832;2023-03-03T23:50:32;45.17;;;16.00;;
74851;SDS011;63400;50.650;6.832;2023-03-03T23:53:01;41.80;;;13.77;;
74851;SDS011;63400;50.650;6.832;2023-03-03T23:55:27;44.83;;;15.18;;
74851;SDS011;63400;50.650;6.832;2023-03-03T23:57:53;47.90;;;16.45;;
